Flight Track Log - Related Links

Times and Time Zones

All times are in EDT time to prevent confusion due to time zone crossing. See the JZA7936 flight status page for this flight to view local times or setup timezone preferences in your user account.

Time Position Orientation Groundspeed Altitude Reporting Facility
EDT Latitude Longitude Course Direction KTS MPH feet Rate Location/Type
Sat 08:58:44 PM 43.6500 -79.6167 194° South 120 138 1,100  Level Toronto Center
Sat 08:59:44 PM 43.6333 -79.6333 216° Southwest 140 161 2,400 1,350 Climbing Toronto Center
Sat 09:00:44 PM 43.5833 -79.6500 194° South 150 173 3,800 1,300 Climbing Toronto Center
Sat 09:01:44 PM 43.5500 -79.6500 180° South 160 184 5,000 1,150 Climbing Toronto Center
Sat 09:02:00 PM 43.4193 -79.4478 186° South  Level Estimated
Sat 09:02:44 PM 43.5000 -79.6500 180° South 160 184 6,100  Level Toronto Center
Sat 09:03:00 PM 43.3548 -79.4023 194° South  Level Estimated
Sat 09:03:44 PM 43.4500 -79.6833 206° Southwest 170 196 7,200  Level Toronto Center
Sat 09:04:44 PM 43.4000 -79.6833 180° South 180 207 8,100 1,000 Climbing Toronto Center
Sat 09:05:44 PM 43.3500 -79.6833 180° South 190 219 9,200 1,100 Climbing Toronto Center
Sat 09:06:44 PM 43.3000 -79.6833 180° South 190 219 10,300 1,000 Climbing Toronto Center
Sat 09:07:44 PM 43.2500 -79.6833 180° South 190 219 11,200 900 Climbing Toronto Center
Sat 09:08:44 PM 43.1833 -79.6833 180° South 200 230 12,100 900 Climbing Toronto Center
Sat 09:09:44 PM 43.1333 -79.6500 154° Southeast 200 230 13,000 850 Climbing Toronto Center
Sat 09:10:44 PM 43.0667 -79.6500 180° South 210 242 13,800 950 Climbing Toronto Center
Sat 09:11:44 PM 43.0167 -79.6500 180° South 210 242 14,900 1,000 Climbing Toronto Center
Sat 09:12:44 PM 42.9500 -79.6333 170° South 210 242 15,800 800 Climbing Toronto Center
Sat 09:13:44 PM 42.9000 -79.6333 180° South 210 242 16,500 750 Climbing Toronto Center
Sat 09:14:44 PM 42.8333 -79.6333 180° South 210 242 17,300 795 Climbing Toronto Center
Sat 09:15:07 PM 42.8294 -79.6433 242° Southwest 214 246 17,600 506 Climbing Cleveland Center
Sat 09:16:07 PM 42.7731 -79.6356 174° South 214 246 18,000 450 Climbing Cleveland Center
Sat 09:17:07 PM 42.7186 -79.6025 156° South 214 246 18,500 550 Climbing Cleveland Center
Sat 09:18:07 PM 42.6722 -79.5469 139° Southeast 214 246 19,100 550 Climbing Cleveland Center
Sat 09:19:07 PM 42.6219 -79.4942 142° Southeast 226 260 19,600 500 Climbing Cleveland Center
Sat 09:20:07 PM 42.5714 -79.4386 141° Southeast 231 266 20,100 450 Climbing Cleveland Center
Sat 09:21:07 PM 42.5250 -79.3858 140° Southeast 226 260 20,500 400 Climbing Cleveland Center
Sat 09:22:07 PM 42.4700 -79.3333 145° Southeast 226 260 20,900 350 Climbing Cleveland Center
Sat 09:23:07 PM 42.4194 -79.2753 140° Southeast 231 266 21,200 344 Climbing Cleveland Center
Sat 09:24:09 PM 42.3667 -79.2203 142° Southeast 231 266 21,600 400 Climbing Cleveland Center
Sat 09:25:07 PM 42.3139 -79.1653 142° Southeast 236 272 22,000 356 Climbing Cleveland Center
Sat 09:26:07 PM 42.2631 -79.1047 139° Southeast 236 272 22,300 350 Climbing Cleveland Center
Sat 09:27:07 PM 42.2103 -79.0497 142° Southeast 236 272 22,700 350 Climbing Cleveland Center
Sat 09:28:07 PM 42.1489 -78.9842 142° Southeast 248 285 23,000 150 Climbing Cleveland Center
Sat 09:29:07 PM 42.0919 -78.9239 142° Southeast 254 292 23,000  Level Cleveland Center
Sat 09:30:07 PM 42.0325 -78.8611 142° Southeast 260 299 23,000  Level Cleveland Center
Sat 09:31:07 PM 41.9733 -78.7986 142° Southeast 266 306 23,000  Level Cleveland Center
Sat 09:32:07 PM 41.9139 -78.7303 139° Southeast 272 313 23,000  Level Cleveland Center
Sat 09:33:07 PM 41.8544 -78.6681 142° Southeast 278 320 23,000  Level Cleveland Center
Sat 09:34:07 PM 41.7928 -78.6031 142° Southeast 278 320 23,000  Level Cleveland Center
Sat 09:35:07 PM 41.7292 -78.5381 143° Southeast 278 320 23,000  Level Cleveland Center
Sat 09:36:07 PM 41.6675 -78.4733 142° Southeast 278 320 23,000  Level Cleveland Center
Sat 09:37:07 PM 41.6081 -78.4086 141° Southeast 278 320 23,000  Level Cleveland Center
Sat 09:38:08 PM 41.5483 -78.3442 141° Southeast 278 320 23,000  Level Cleveland Center
Sat 09:38:39 PM 41.5192 -78.3161 144° Southeast 280 322 23,000  Level New York Center
Sat 09:39:37 PM 41.4564 -78.2536 143° Southeast 280 322 23,000  Level New York Center
Sat 09:40:39 PM 41.4019 -78.1922 140° Southeast 280 322 23,000  Level New York Center
Sat 09:41:37 PM 41.3433 -78.1278 140° Southeast 280 322 23,000  Level New York Center
Sat 09:42:38 PM 41.2806 -78.0683 145° Southeast 280 322 23,000  Level New York Center
Sat 09:43:40 PM 41.2219 -78.0042 141° Southeast 280 322 23,000  Level New York Center
Sat 09:44:38 PM 41.1611 -77.9397 141° Southeast 280 322 23,000  Level New York Center
Sat 09:45:39 PM 41.0950 -77.8942 153° Southeast 275 316 23,000 -248 Level New York Center
Sat 09:46:39 PM 41.0250 -77.8483 154° Southeast 269 310 22,500 -763 Descending New York Center
Sat 09:47:37 PM 40.9486 -77.8019 155° Southeast 290 334 21,500 -1,008 Descending New York Center
Sat 09:48:38 PM 40.8722 -77.7500 153° Southeast 306 352 20,500 -992 Descending New York Center
Sat 09:49:38 PM 40.7942 -77.6983 153° Southeast 311 358 19,500 -1,000 Descending New York Center
Sat 09:50:38 PM 40.7158 -77.6464 153° Southeast 311 358 18,500 -756 Descending New York Center
Sat 09:51:37 PM 40.6314 -77.5914 154° Southeast 311 358 18,000 -252 Descending New York Center
Sat 09:52:37 PM 40.5550 -77.5431 154° Southeast 306 352 18,000  Level New York Center
Sat 09:53:38 PM 40.4867 -77.4981 153° Southeast 293 337 18,000  Level New York Center
Sat 09:54:39 PM 40.4164 -77.4531 154° Southeast 286 329 18,000 -149 Level New York Center
Sat 09:55:39 PM 40.3458 -77.4081 154° Southeast 286 329 17,700 -712 Descending New York Center
Sat 09:56:37 PM 40.2694 -77.3572 153° Southeast 293 337 16,600 -1,017 Descending New York Center
Sat 09:57:37 PM 40.1911 -77.3061 154° Southeast 312 359 15,700 -963 Descending New York Center
Sat 09:59:19 PM 40.0667 -77.2167 151° Southeast 317 365 14,000 -1,000 Descending Potomac TRACON
Sat 10:00:19 PM 39.9833 -77.1667 155° Southeast 313 360 13,000 -992 Descending Potomac TRACON
Sat 10:01:20 PM 39.9000 -77.1167 155° Southeast 308 354 12,000 -992 Descending Potomac TRACON
Sat 10:02:20 PM 39.8333 -77.0833 159° South 307 353 11,000 -1,000 Descending Potomac TRACON
Sat 10:03:20 PM 39.7500 -77.0167 148° Southeast 303 349 10,000 -1,000 Descending Potomac TRACON
Sat 10:04:20 PM 39.6833 -76.9500 142° Southeast 299 344 9,000 -992 Descending Potomac TRACON
Sat 10:05:21 PM 39.6333 -76.8833 134° Southeast 290 334 8,000 -1,091 Descending Potomac TRACON
Sat 10:06:21 PM 39.5667 -76.8167 142° Southeast 286 329 6,800 -1,350 Descending Potomac TRACON
Sat 10:07:21 PM 39.5167 -76.7333 128° Southeast 273 314 5,300 -1,400 Descending Potomac TRACON
Sat 10:08:21 PM 39.4667 -76.6667 134° Southeast 261 300 4,000 -645 Descending Potomac TRACON
Sat 10:09:22 PM 39.4167 -76.6167 142° Southeast 244 281 4,000 -248 Level Potomac TRACON
Sat 10:10:22 PM 39.3500 -76.5833 159° South 244 281 3,500 -500 Descending Potomac TRACON
Sat 10:11:22 PM 39.3000 -76.5500 153° Southeast 220 253 3,000 -250 Descending Potomac TRACON
Sat 10:12:22 PM 39.2500 -76.5167 153° Southeast 203 234 3,000  Level Potomac TRACON
Sat 10:13:22 PM 39.2000 -76.4833 153° Southeast 197 227 3,000  Level Potomac TRACON
Sat 10:14:22 PM 39.1500 -76.4667 166° South 193 222 3,000  Level Potomac TRACON
Sat 10:15:22 PM 39.1000 -76.5000 207° Southwest 187 215 3,000 -250 Level Potomac TRACON
Sat 10:16:22 PM 39.0833 -76.5500 247° West 186 214 2,500 -650 Descending Potomac TRACON
Sat 10:17:22 PM 39.1000 -76.5833 303° West 163 188 1,700 -750 Descending Potomac TRACON
Sat 10:18:22 PM 39.1333 -76.6167 322° Northwest 132 152 1,000 -667 Descending Potomac TRACON
Sat 10:19:28 PM 39.1667 -76.6500 322° Northwest 116 133 300 -636 Descending Potomac TRACON

Login

Don't have an account? Register now (free) for customized features, flight alerts, and more!